Time;durP1;ratioP1;P1;durP2;ratioP2;P2;SDS_P1;SDS_P2;PMS_P1;PMS_P2;Temp;Humidity;BMP_temperature;BMP_pressure;BME280_temperature;BME280_humidity;BME280_pressure;Samples;Min_cycle;Max_cycle;Signal;HPM_P1;HPM_P2
2023/07/22 00:02:05;;;;;;;;;;;16.80;91.20;;;;;;5022052;28;20012;-86
2023/07/22 00:04:31;;;;;;;;;;;17.00;90.80;;;;;;5021832;28;20274;-86
2023/07/22 00:06:56;;;;;;;;;;;17.00;90.80;;;;;;5024179;28;19913;-84
2023/07/22 00:09:22;;;;;;;;;;;16.90;90.90;;;;;;5022009;28;19940;-87
2023/07/22 00:11:49;;;;;;;;;;;16.80;91.20;;;;;;5004732;28;20007;-87
2023/07/22 00:14:15;;;;;;;;;;;16.90;91.00;;;;;;4994674;28;19928;-85
2023/07/22 00:16:40;;;;;;;;;;;16.90;90.90;;;;;;5020358;28;19913;-84
2023/07/22 00:19:07;;;;;;;;;;;16.90;90.90;;;;;;5022556;28;19975;-84
2023/07/22 00:21:34;;;;;;;;;;;16.90;90.90;;;;;;5022442;28;19917;-86
2023/07/22 00:24:00;;;;;;;;;;;16.90;90.90;;;;;;5003427;28;19932;-89
2023/07/22 00:26:25;;;;;;;;;;;16.90;90.70;;;;;;5022017;28;20605;-87
2023/07/22 00:28:51;;;;;;;;;;;16.90;90.60;;;;;;5020078;28;19916;-87
2023/07/22 00:31:16;;;;;;;;;;;16.80;90.60;;;;;;5021861;28;19921;-85
2023/07/22 00:33:42;;;;;;;;;;;16.90;90.50;;;;;;5020283;28;20439;-85
2023/07/22 00:36:07;;;;;;;;;;;16.90;90.40;;;;;;5021380;28;20292;-86
2023/07/22 00:38:33;;;;;;;;;;;16.90;90.50;;;;;;5022047;28;20537;-87
2023/07/22 00:40:59;;;;;;;;;;;16.90;90.40;;;;;;5021213;28;20450;-86
2023/07/22 00:43:25;;;;;;;;;;;16.90;90.40;;;;;;5003526;28;19917;-87
2023/07/22 00:45:51;;;;;;;;;;;16.90;90.60;;;;;;5020841;28;19961;-85
2023/07/22 00:48:17;;;;;;;;;;;16.90;90.40;;;;;;5019957;28;19928;-86
2023/07/22 00:50:43;;;;;;;;;;;16.90;90.60;;;;;;5002093;28;19933;-87
2023/07/22 00:53:09;;;;;;;;;;;16.90;90.80;;;;;;5019003;28;19920;-86
2023/07/22 00:55:35;;;;;;;;;;;16.80;90.90;;;;;;5016855;28;20291;-87
2023/07/22 00:58:01;;;;;;;;;;;16.90;90.70;;;;;;5020430;28;20004;-87
2023/07/22 01:00:26;;;;;;;;;;;16.90;90.50;;;;;;5002000;28;19925;-86
2023/07/22 01:02:53;;;;;;;;;;;16.90;90.40;;;;;;5023143;28;19917;-86
2023/07/22 01:05:18;;;;;;;;;;;17.00;90.20;;;;;;5023911;28;19924;-86
2023/07/22 01:07:44;;;;;;;;;;;17.00;90.10;;;;;;5022601;28;19917;-86
2023/07/22 01:10:09;;;;;;;;;;;17.00;90.20;;;;;;5024486;28;19917;-85
2023/07/22 01:12:35;;;;;;;;;;;16.90;90.80;;;;;;5005147;28;19917;-86
2023/07/22 01:15:07;;;;;;;;;;;16.90;90.60;;;;;;5006076;28;19984;-88
2023/07/22 01:17:33;;;;;;;;;;;16.90;90.80;;;;;;5005688;28;19921;-90
2023/07/22 01:19:59;;;;;;;;;;;17.00;91.00;;;;;;5023884;28;19917;-86
2023/07/22 01:22:24;;;;;;;;;;;16.90;91.30;;;;;;5023261;28;20497;-88
2023/07/22 01:24:50;;;;;;;;;;;16.80;91.30;;;;;;5025038;28;19917;-88
2023/07/22 01:27:16;;;;;;;;;;;16.70;91.60;;;;;;5023622;28;19924;-85
2023/07/22 01:29:41;;;;;;;;;;;16.70;91.90;;;;;;5024500;28;20331;-85
2023/07/22 01:32:07;;;;;;;;;;;16.70;92.00;;;;;;5024344;28;19931;-86
2023/07/22 01:34:33;;;;;;;;;;;16.60;92.20;;;;;;5023506;28;19925;-86
2023/07/22 01:36:59;;;;;;;;;;;16.50;92.30;;;;;;5024879;28;20451;-86
2023/07/22 01:39:25;;;;;;;;;;;16.50;92.60;;;;;;5022747;28;19967;-87
2023/07/22 01:41:50;;;;;;;;;;;16.50;92.90;;;;;;5024237;28;19936;-85
2023/07/22 01:44:16;;;;;;;;;;;16.50;92.90;;;;;;5022799;28;19921;-85
2023/07/22 01:46:41;;;;;;;;;;;16.50;93.00;;;;;;5024480;28;20752;-84
2023/07/22 01:49:10;;;;;;;;;;;16.50;92.80;;;;;;5022338;28;20387;-85
2023/07/22 01:51:37;;;;;;;;;;;16.50;92.80;;;;;;5023538;28;20030;-85
2023/07/22 01:54:03;;;;;;;;;;;16.50;92.90;;;;;;5019260;28;19933;-86
2023/07/22 01:56:29;;;;;;;;;;;16.50;92.90;;;;;;5024338;28;19917;-85
2023/07/22 01:58:55;;;;;;;;;;;16.40;93.40;;;;;;5019407;28;20055;-86
2023/07/22 02:01:20;;;;;;;;;;;16.40;93.20;;;;;;5022442;28;19952;-87
2023/07/22 02:03:46;;;;;;;;;;;16.30;93.30;;;;;;5023551;28;19924;-86
2023/07/22 02:06:12;;;;;;;;;;;16.30;93.40;;;;;;5005194;28;19917;-84
2023/07/22 02:08:38;;;;;;;;;;;16.30;93.40;;;;;;5022886;28;19917;-86
2023/07/22 02:11:05;;;;;;;;;;;16.20;93.40;;;;;;5022773;28;19952;-87
2023/07/22 02:13:31;;;;;;;;;;;16.20;93.60;;;;;;5023679;28;20427;-86
2023/07/22 02:15:57;;;;;;;;;;;16.10;93.80;;;;;;5022671;28;19917;-84
2023/07/22 02:18:22;;;;;;;;;;;16.00;94.10;;;;;;5022759;28;19967;-85
2023/07/22 02:20:48;;;;;;;;;;;16.00;94.40;;;;;;5022951;28;19920;-83
2023/07/22 02:23:14;;;;;;;;;;;16.00;94.40;;;;;;5023909;28;19917;-82
2023/07/22 02:25:39;;;;;;;;;;;16.00;94.40;;;;;;5023236;28;19975;-85
2023/07/22 02:28:06;;;;;;;;;;;16.00;94.30;;;;;;5023726;28;19917;-85
2023/07/22 02:30:34;;;;;;;;;;;15.90;94.50;;;;;;5018067;28;20086;-83
2023/07/22 02:33:01;;;;;;;;;;;15.90;94.60;;;;;;5024104;28;19913;-85
2023/07/22 02:35:27;;;;;;;;;;;15.90;94.50;;;;;;5005058;28;20007;-83
2023/07/22 02:37:53;;;;;;;;;;;15.90;94.60;;;;;;5023562;28;19967;-83
2023/07/22 02:40:18;;;;;;;;;;;15.90;94.70;;;;;;5023019;28;20020;-83
2023/07/22 02:42:44;;;;;;;;;;;15.80;94.90;;;;;;5022547;28;19963;-83
2023/07/22 02:45:10;;;;;;;;;;;15.80;95.10;;;;;;5022164;28;19913;-84
2023/07/22 02:47:35;;;;;;;;;;;15.80;94.90;;;;;;5004313;28;19921;-83
2023/07/22 02:50:01;;;;;;;;;;;15.80;95.10;;;;;;5005206;28;19971;-83
2023/07/22 02:52:26;;;;;;;;;;;15.80;95.20;;;;;;5004910;28;20336;-84
2023/07/22 02:55:05;;;;;;;;;;;15.70;95.40;;;;;;5022196;28;19925;-85
2023/07/22 02:57:31;;;;;;;;;;;15.70;95.60;;;;;;5021701;28;19952;-85
2023/07/22 02:59:56;;;;;;;;;;;15.50;95.80;;;;;;5023131;28;19921;-82
2023/07/22 03:02:22;;;;;;;;;;;15.50;96.00;;;;;;5003299;28;20369;-84
2023/07/22 03:04:47;;;;;;;;;;;15.50;96.40;;;;;;5023218;28;19948;-84
2023/07/22 03:07:13;;;;;;;;;;;15.40;96.70;;;;;;5023543;28;19913;-82
2023/07/22 03:09:38;;;;;;;;;;;15.40;96.70;;;;;;5023198;28;19919;-82
2023/07/22 03:12:04;;;;;;;;;;;15.30;97.10;;;;;;5023365;28;19961;-83
2023/07/22 03:14:37;;;;;;;;;;;15.30;97.30;;;;;;5020948;28;20462;-82
2023/07/22 03:17:03;;;;;;;;;;;15.20;97.80;;;;;;5022604;28;19913;-82
2023/07/22 03:19:29;;;;;;;;;;;15.20;98.20;;;;;;5020925;28;19913;-82
2023/07/22 03:21:55;;;;;;;;;;;15.20;98.30;;;;;;5022399;28;19913;-83
2023/07/22 03:24:20;;;;;;;;;;;15.20;98.10;;;;;;5004504;28;19913;-83
2023/07/22 03:26:46;;;;;;;;;;;15.20;98.20;;;;;;5021594;28;19971;-83
2023/07/22 03:29:11;;;;;;;;;;;15.20;98.00;;;;;;5021281;28;19944;-85
2023/07/22 03:31:37;;;;;;;;;;;15.20;97.60;;;;;;5004400;28;20384;-84
2023/07/22 03:34:02;;;;;;;;;;;15.40;96.90;;;;;;5021272;28;20307;-84
2023/07/22 03:36:28;;;;;;;;;;;15.30;96.80;;;;;;5022000;28;20024;-84
2023/07/22 03:38:54;;;;;;;;;;;15.30;96.90;;;;;;5021236;28;19917;-83
2023/07/22 03:41:19;;;;;;;;;;;15.30;97.40;;;;;;5021846;28;19917;-84
2023/07/22 03:43:45;;;;;;;;;;;15.40;97.30;;;;;;5003658;28;20251;-85
2023/07/22 03:46:10;;;;;;;;;;;15.40;97.10;;;;;;5021464;28;19924;-85
2023/07/22 03:48:36;;;;;;;;;;;15.40;97.00;;;;;;5004400;28;21070;-85
2023/07/22 03:51:02;;;;;;;;;;;15.50;96.70;;;;;;5021439;28;19948;-83
2023/07/22 03:53:27;;;;;;;;;;;15.30;97.20;;;;;;5022249;28;19955;-82
2023/07/22 03:55:53;;;;;;;;;;;15.30;97.80;;;;;;5003197;28;20415;-82
2023/07/22 03:58:18;;;;;;;;;;;15.20;98.10;;;;;;5020196;28;19947;-83
2023/07/22 04:00:47;;;;;;;;;;;15.00;98.60;;;;;;5020695;28;19925;-85
2023/07/22 04:03:13;;;;;;;;;;;14.90;99.00;;;;;;5021542;28;19931;-84
2023/07/22 04:05:38;;;;;;;;;;;14.90;99.50;;;;;;5021655;28;20480;-85
2023/07/22 04:08:04;;;;;;;;;;;14.80;99.90;;;;;;5021670;28;20408;-84
2023/07/22 04:10:30;;;;;;;;;;;14.70;99.90;;;;;;5021580;28;19982;-86
2023/07/22 04:12:55;;;;;;;;;;;14.70;99.90;;;;;;5018075;28;19917;-85
2023/07/22 04:15:21;;;;;;;;;;;14.60;99.90;;;;;;5020123;28;19952;-85
2023/07/22 04:17:46;;;;;;;;;;;14.60;99.90;;;;;;5021403;28;20351;-84
2023/07/22 04:20:12;;;;;;;;;;;14.60;99.90;;;;;;5004199;28;20508;-85
2023/07/22 04:22:38;;;;;;;;;;;14.70;99.90;;;;;;5003561;28;19969;-86
2023/07/22 04:25:04;;;;;;;;;;;14.80;99.90;;;;;;5021895;28;20001;-86
2023/07/22 04:27:30;;;;;;;;;;;14.90;99.90;;;;;;5018546;28;20266;-85
2023/07/22 04:29:55;;;;;;;;;;;14.90;99.10;;;;;;5003372;28;19928;-84
2023/07/22 04:32:21;;;;;;;;;;;14.80;99.00;;;;;;5023179;28;19917;-85
2023/07/22 04:34:47;;;;;;;;;;;14.70;99.90;;;;;;5024710;28;19964;-82
2023/07/22 04:37:13;;;;;;;;;;;14.60;99.90;;;;;;5025558;28;19921;-85
2023/07/22 04:39:39;;;;;;;;;;;14.70;99.90;;;;;;5024231;28;20343;-83
2023/07/22 04:42:05;;;;;;;;;;;14.70;99.90;;;;;;5024764;28;19925;-84
2023/07/22 04:44:30;;;;;;;;;;;14.80;99.90;;;;;;5021710;28;19918;-83
2023/07/22 04:46:56;;;;;;;;;;;14.80;99.90;;;;;;5025360;28;20513;-85
2023/07/22 04:49:22;;;;;;;;;;;14.90;99.90;;;;;;5006266;28;20514;-83
2023/07/22 04:51:48;;;;;;;;;;;15.00;99.60;;;;;;5025322;28;19925;-83
2023/07/22 04:54:13;;;;;;;;;;;15.10;98.70;;;;;;5006169;28;20304;-88
2023/07/22 04:56:41;;;;;;;;;;;15.30;97.80;;;;;;5022902;28;22054;-85
2023/07/22 04:59:07;;;;;;;;;;;15.50;97.10;;;;;;5024928;28;20014;-85
2023/07/22 05:01:32;;;;;;;;;;;15.70;96.40;;;;;;5025113;28;20315;-85
2023/07/22 05:03:58;;;;;;;;;;;15.70;96.00;;;;;;5024967;28;19913;-86
2023/07/22 05:06:24;;;;;;;;;;;15.90;95.80;;;;;;5025175;28;19991;-84
2023/07/22 05:08:50;;;;;;;;;;;16.00;95.10;;;;;;5023808;28;19966;-86
2023/07/22 05:11:16;;;;;;;;;;;16.10;94.70;;;;;;5022196;28;20735;-86
2023/07/22 05:13:42;;;;;;;;;;;16.40;93.90;;;;;;5022119;28;20482;-85
2023/07/22 05:16:07;;;;;;;;;;;16.70;92.90;;;;;;5018282;28;19921;-86
2023/07/22 05:18:33;;;;;;;;;;;17.10;92.00;;;;;;5016540;28;19928;-84
2023/07/22 05:20:58;;;;;;;;;;;17.40;91.10;;;;;;5015961;28;19928;-84
2023/07/22 05:23:24;;;;;;;;;;;17.50;90.60;;;;;;5016641;28;20032;-84
2023/07/22 05:28:52;;;;;;;;;;;17.90;89.30;;;;;;5014854;28;20488;-86
2023/07/22 05:31:18;;;;;;;;;;;17.90;89.10;;;;;;5023129;28;19917;-83
2023/07/22 05:33:43;;;;;;;;;;;17.70;90.40;;;;;;5023296;28;20463;-81
2023/07/22 05:36:09;;;;;;;;;;;17.30;91.20;;;;;;5024353;28;19917;-81
2023/07/22 05:38:35;;;;;;;;;;;17.50;91.20;;;;;;5006158;28;19920;-83
2023/07/22 05:41:00;;;;;;;;;;;17.80;90.30;;;;;;5023130;28;19924;-82
2023/07/22 05:43:26;;;;;;;;;;;18.00;90.10;;;;;;5024255;28;20769;-86
2023/07/22 05:45:51;;;;;;;;;;;19.00;86.80;;;;;;5024963;28;19928;-84
2023/07/22 05:48:17;;;;;;;;;;;19.60;83.00;;;;;;5018251;28;19967;-83
2023/07/22 05:50:42;;;;;;;;;;;20.20;80.40;;;;;;5006381;28;19929;-83
2023/07/22 05:53:08;;;;;;;;;;;20.70;78.10;;;;;;5024225;28;19924;-83
2023/07/22 05:55:33;;;;;;;;;;;20.80;77.80;;;;;;5024503;28;20379;-81
2023/07/22 05:58:05;;;;;;;;;;;21.00;77.20;;;;;;5016804;28;19917;-82
2023/07/22 06:00:31;;;;;;;;;;;21.30;76.20;;;;;;5025806;28;19914;-82
2023/07/22 06:02:56;;;;;;;;;;;21.60;75.00;;;;;;5031136;28;19960;-82
2023/07/22 06:05:22;;;;;;;;;;;21.90;74.30;;;;;;5024131;28;20012;-83
2023/07/22 06:07:47;;;;;;;;;;;22.60;71.90;;;;;;5023377;28;19920;-84
2023/07/22 06:10:13;;;;;;;;;;;23.10;69.80;;;;;;5023146;28;19928;-83
2023/07/22 06:12:39;;;;;;;;;;;23.20;68.10;;;;;;5022254;28;20619;-88
2023/07/22 06:15:05;;;;;;;;;;;23.70;66.70;;;;;;5025073;28;19925;-86
2023/07/22 06:17:31;;;;;;;;;;;24.10;65.30;;;;;;5023826;28;19935;-87
2023/07/22 06:19:56;;;;;;;;;;;23.70;66.30;;;;;;5032970;28;20635;-88
2023/07/22 06:22:22;;;;;;;;;;;24.00;65.90;;;;;;5006198;28;20376;-86
2023/07/22 06:24:47;;;;;;;;;;;24.00;64.40;;;;;;5024516;28;20364;-86
2023/07/22 06:27:13;;;;;;;;;;;24.40;64.40;;;;;;5023975;28;19921;-86
2023/07/22 06:29:38;;;;;;;;;;;25.10;62.10;;;;;;5005637;28;20459;-86
2023/07/22 06:32:04;;;;;;;;;;;25.40;61.80;;;;;;5030329;28;20376;-87
2023/07/22 06:34:30;;;;;;;;;;;25.40;60.20;;;;;;5024429;28;19928;-87
2023/07/22 06:36:55;;;;;;;;;;;24.00;64.90;;;;;;5022571;28;20381;-86
2023/07/22 06:39:21;;;;;;;;;;;25.10;62.00;;;;;;5028645;28;19974;-85
2023/07/22 06:41:46;;;;;;;;;;;24.60;63.90;;;;;;5024366;28;19928;-88
2023/07/22 06:44:12;;;;;;;;;;;26.20;59.80;;;;;;5027371;28;19987;-85
2023/07/22 06:46:37;;;;;;;;;;;26.40;59.40;;;;;;5024474;28;20008;-87
2023/07/22 06:49:03;;;;;;;;;;;26.50;58.40;;;;;;5023018;28;19921;-87
2023/07/22 06:51:28;;;;;;;;;;;26.50;58.40;;;;;;5022770;28;19975;-86
2023/07/22 06:53:54;;;;;;;;;;;27.60;55.90;;;;;;5021259;28;20339;-81
2023/07/22 06:56:20;;;;;;;;;;;27.70;55.40;;;;;;5019343;28;21373;-82
2023/07/22 06:58:46;;;;;;;;;;;27.30;55.50;;;;;;5020896;28;19921;-81
2023/07/22 07:01:12;;;;;;;;;;;27.90;54.80;;;;;;5023131;28;19963;-82
2023/07/22 07:03:38;;;;;;;;;;;27.50;55.70;;;;;;5021823;28;20006;-80
2023/07/22 07:06:03;;;;;;;;;;;26.00;57.60;;;;;;5020475;28;19928;-81
2023/07/22 07:08:29;;;;;;;;;;;25.70;59.30;;;;;;5022265;28;19917;-80
2023/07/22 07:10:54;;;;;;;;;;;27.20;55.50;;;;;;5022105;28;19917;-80
2023/07/22 07:13:20;;;;;;;;;;;28.70;52.80;;;;;;5021423;28;19914;-81
2023/07/22 07:15:48;;;;;;;;;;;29.00;52.40;;;;;;5021673;28;20151;-82
2023/07/22 07:18:13;;;;;;;;;;;29.50;51.80;;;;;;5017261;28;20311;-81
2023/07/22 07:20:39;;;;;;;;;;;29.50;49.90;;;;;;5020972;28;19913;-82
2023/07/22 07:23:04;;;;;;;;;;;29.90;50.00;;;;;;5022100;28;20306;-82
2023/07/22 07:25:30;;;;;;;;;;;30.40;50.20;;;;;;5018695;28;20456;-81
2023/07/22 07:27:55;;;;;;;;;;;30.60;48.80;;;;;;5003075;28;20439;-81
2023/07/22 07:30:21;;;;;;;;;;;30.40;48.50;;;;;;5020368;28;20017;-81
2023/07/22 07:32:47;;;;;;;;;;;30.70;48.00;;;;;;5020262;28;20345;-82
2023/07/22 07:35:12;;;;;;;;;;;30.40;48.60;;;;;;5008458;28;19979;-81
2023/07/22 07:37:38;;;;;;;;;;;30.30;48.00;;;;;;5021362;28;20451;-81
2023/07/22 07:40:04;;;;;;;;;;;30.60;48.30;;;;;;5015757;28;20012;-81
2023/07/22 07:42:29;;;;;;;;;;;30.80;46.90;;;;;;5012501;28;19945;-81
2023/07/22 07:44:55;;;;;;;;;;;30.50;45.90;;;;;;5026582;28;20355;-81
2023/07/22 07:47:20;;;;;;;;;;;31.60;47.00;;;;;;5002471;28;20400;-81
2023/07/22 07:49:46;;;;;;;;;;;32.30;45.30;;;;;;5014217;28;19923;-81
2023/07/22 07:52:12;;;;;;;;;;;32.10;44.20;;;;;;5020587;28;20020;-81
2023/07/22 07:54:37;;;;;;;;;;;32.50;43.80;;;;;;5023127;28;19925;-80
2023/07/22 07:57:03;;;;;;;;;;;32.60;43.80;;;;;;5018458;28;19921;-82
2023/07/22 07:59:28;;;;;;;;;;;31.10;47.50;;;;;;5013732;28;20008;-81
2023/07/22 08:01:54;;;;;;;;;;;31.50;46.30;;;;;;5017232;28;20195;-81
2023/07/22 08:04:20;;;;;;;;;;;32.30;46.00;;;;;;5025849;28;20708;-82
2023/07/22 08:06:45;;;;;;;;;;;32.90;45.60;;;;;;5027434;28;20954;-81
2023/07/22 08:09:16;;;;;;;;;;;32.40;44.40;;;;;;5021241;28;20469;-81
2023/07/22 08:11:41;;;;;;;;;;;33.40;44.50;;;;;;5021840;28;19917;-81
2023/07/22 08:14:08;;;;;;;;;;;34.00;43.50;;;;;;5004266;28;19932;-81
2023/07/22 08:16:33;;;;;;;;;;;34.10;41.30;;;;;;5019569;28;19921;-81
2023/07/22 08:18:59;;;;;;;;;;;34.30;42.50;;;;;;5012038;28;19927;-82
2023/07/22 08:21:24;;;;;;;;;;;34.50;41.40;;;;;;5006674;28;19917;-82
2023/07/22 08:23:50;;;;;;;;;;;34.90;41.00;;;;;;5019552;28;19917;-81
2023/07/22 08:26:20;;;;;;;;;;;35.40;41.40;;;;;;5004843;28;20498;-82
2023/07/22 08:28:46;;;;;;;;;;;35.30;39.90;;;;;;5019485;28;19971;-88
2023/07/22 08:31:14;;;;;;;;;;;35.80;40.60;;;;;;5004976;28;20742;-88
2023/07/22 08:33:40;;;;;;;;;;;35.80;39.80;;;;;;5006973;28;19965;-90
2023/07/22 08:36:05;;;;;;;;;;;35.90;39.10;;;;;;5022250;28;20036;-88
2023/07/22 08:38:31;;;;;;;;;;;36.30;38.40;;;;;;5017404;28;19960;-89
2023/07/22 08:40:57;;;;;;;;;;;36.40;39.50;;;;;;5001525;28;20023;-88
2023/07/22 08:43:22;;;;;;;;;;;36.70;38.50;;;;;;4992681;28;20000;-87
2023/07/22 08:45:49;;;;;;;;;;;36.80;38.30;;;;;;5018148;28;20436;-89
2023/07/22 08:48:18;;;;;;;;;;;37.30;38.60;;;;;;5020698;28;19924;-88
2023/07/22 08:50:51;;;;;;;;;;;37.60;38.00;;;;;;5019874;28;19972;-88
2023/07/22 08:53:17;;;;;;;;;;;36.70;38.20;;;;;;5020526;28;19913;-88
2023/07/22 08:55:43;;;;;;;;;;;37.00;38.60;;;;;;5021088;28;19929;-85
2023/07/22 08:58:09;;;;;;;;;;;37.10;36.00;;;;;;5017781;28;19967;-86
2023/07/22 09:00:35;;;;;;;;;;;37.80;37.60;;;;;;5006519;28;19918;-88
2023/07/22 09:03:01;;;;;;;;;;;37.70;36.60;;;;;;5021730;28;19923;-88
2023/07/22 09:05:27;;;;;;;;;;;38.40;34.90;;;;;;5028883;28;20391;-85
2023/07/22 09:07:53;;;;;;;;;;;37.10;35.30;;;;;;5021281;28;20011;-86
2023/07/22 09:10:19;;;;;;;;;;;36.00;37.10;;;;;;5019525;28;20924;-88
2023/07/22 09:12:44;;;;;;;;;;;37.90;37.20;;;;;;5001747;28;20398;-84
2023/07/22 09:15:11;;;;;;;;;;;38.30;35.60;;;;;;5021348;28;19921;-87
2023/07/22 09:17:38;;;;;;;;;;;38.10;34.20;;;;;;5017671;28;19918;-86
2023/07/22 09:20:04;;;;;;;;;;;38.20;35.70;;;;;;5020375;28;19917;-88
2023/07/22 09:22:31;;;;;;;;;;;38.70;33.20;;;;;;5025146;28;19913;-87
2023/07/22 09:25:12;;;;;;;;;;;39.20;33.10;;;;;;5020988;28;19917;-87
2023/07/22 09:27:38;;;;;;;;;;;39.00;32.60;;;;;;5025604;28;19914;-87
2023/07/22 09:30:04;;;;;;;;;;;39.10;31.20;;;;;;5022795;28;19924;-87
2023/07/22 09:32:36;;;;;;;;;;;38.60;30.90;;;;;;5023382;28;19913;-86
2023/07/22 09:35:02;;;;;;;;;;;37.70;33.10;;;;;;5004983;28;19932;-86
2023/07/22 09:37:38;;;;;;;;;;;38.20;33.00;;;;;;5024763;28;19913;-86
2023/07/22 09:40:22;;;;;;;;;;;38.70;32.60;;;;;;5017664;28;19968;-87
2023/07/22 09:42:48;;;;;;;;;;;38.70;32.50;;;;;;5021101;28;19939;-84
2023/07/22 09:45:14;;;;;;;;;;;37.30;31.10;;;;;;4993786;28;19948;-87
2023/07/22 09:47:41;;;;;;;;;;;38.50;33.30;;;;;;5002709;28;19987;-86
2023/07/22 09:50:06;;;;;;;;;;;38.50;30.00;;;;;;5024591;28;19924;-85
2023/07/22 09:52:32;;;;;;;;;;;38.70;30.50;;;;;;5025663;28;19913;-86
2023/07/22 09:55:00;;;;;;;;;;;39.00;30.90;;;;;;5024989;28;21072;-86
2023/07/22 09:57:26;;;;;;;;;;;39.00;29.00;;;;;;5025119;28;19963;-87
2023/07/22 09:59:52;;;;;;;;;;;39.20;31.50;;;;;;5024525;28;19952;-87
2023/07/22 10:02:20;;;;;;;;;;;39.60;30.60;;;;;;5022913;28;19951;-87
2023/07/22 10:04:45;;;;;;;;;;;39.80;32.00;;;;;;5022176;28;19924;-86
2023/07/22 10:07:12;;;;;;;;;;;39.40;31.00;;;;;;5024811;28;19927;-86
2023/07/22 10:09:37;;;;;;;;;;;39.20;30.20;;;;;;5022501;28;19914;-85
2023/07/22 10:12:03;;;;;;;;;;;37.10;29.50;;;;;;5006472;28;19923;-86
2023/07/22 10:14:29;;;;;;;;;;;37.90;31.00;;;;;;5024398;28;19948;-86
2023/07/22 10:16:55;;;;;;;;;;;38.80;31.20;;;;;;5024185;28;19913;-83
2023/07/22 10:19:21;;;;;;;;;;;38.70;31.90;;;;;;5022353;28;20489;-86
2023/07/22 10:21:48;;;;;;;;;;;37.00;29.80;;;;;;5005718;28;20388;-85
2023/07/22 10:24:14;;;;;;;;;;;38.30;32.30;;;;;;5023563;28;19913;-87
2023/07/22 10:26:39;;;;;;;;;;;38.30;32.70;;;;;;5006440;28;19913;-86
2023/07/22 10:29:06;;;;;;;;;;;37.80;33.20;;;;;;5023065;28;20435;-78
2023/07/22 10:31:32;;;;;;;;;;;36.50;34.80;;;;;;5015364;28;19925;-82
2023/07/22 10:33:57;;;;;;;;;;;37.40;33.80;;;;;;5023547;28;20548;-85
2023/07/22 10:36:28;;;;;;;;;;;35.60;33.40;;;;;;5005846;28;20019;-86
2023/07/22 10:38:57;;;;;;;;;;;36.30;34.40;;;;;;5023802;28;20011;-85
2023/07/22 10:41:23;;;;;;;;;;;36.30;33.50;;;;;;5022797;28;19913;-86
2023/07/22 10:43:55;;;;;;;;;;;37.10;33.60;;;;;;5024183;28;20339;-85
2023/07/22 10:46:32;;;;;;;;;;;34.80;32.30;;;;;;5022571;28;19972;-85
2023/07/22 10:49:06;;;;;;;;;;;33.70;34.00;;;;;;5022209;28;19921;-86
2023/07/22 10:51:35;;;;;;;;;;;32.80;38.60;;;;;;5018910;28;19933;-85
2023/07/22 10:54:01;;;;;;;;;;;31.40;38.80;;;;;;5021727;28;19921;-86
2023/07/22 10:56:26;;;;;;;;;;;30.60;39.70;;;;;;5023333;28;19955;-86
2023/07/22 10:58:52;;;;;;;;;;;30.10;39.20;;;;;;5022777;28;19919;-85
2023/07/22 11:01:45;;;;;;;;;;;29.90;42.70;;;;;;5022432;28;20287;-86
2023/07/22 11:04:11;;;;;;;;;;;29.40;42.50;;;;;;5017248;28;19990;-85
2023/07/22 11:06:37;;;;;;;;;;;30.00;42.80;;;;;;5017940;28;21056;-88
2023/07/22 11:09:03;;;;;;;;;;;29.30;43.20;;;;;;5019703;28;19923;-86
2023/07/22 11:11:41;;;;;;;;;;;29.50;45.80;;;;;;5021996;28;20000;-89
2023/07/22 11:14:16;;;;;;;;;;;29.50;43.70;;;;;;5021546;28;20011;-89
2023/07/22 11:16:42;;;;;;;;;;;29.30;40.50;;;;;;5007047;28;19913;-87
2023/07/22 11:19:07;;;;;;;;;;;29.30;43.40;;;;;;5021934;28;20388;-85
2023/07/22 11:21:33;;;;;;;;;;;29.60;43.10;;;;;;5022180;28;19917;-88
2023/07/22 11:23:59;;;;;;;;;;;29.20;43.50;;;;;;5004062;28;19999;-86
2023/07/22 11:26:24;;;;;;;;;;;29.60;44.10;;;;;;5025754;28;19916;-86
2023/07/22 11:28:52;;;;;;;;;;;29.20;45.50;;;;;;5022762;28;19920;-86
2023/07/22 11:31:18;;;;;;;;;;;29.00;44.90;;;;;;5015942;28;19917;-87
2023/07/22 11:33:46;;;;;;;;;;;29.40;44.50;;;;;;5023218;28;19964;-87
2023/07/22 11:36:13;;;;;;;;;;;29.10;43.70;;;;;;5005657;28;20502;-85
2023/07/22 11:38:38;;;;;;;;;;;28.80;44.40;;;;;;5020928;28;20004;-87
2023/07/22 11:41:04;;;;;;;;;;;28.50;47.20;;;;;;5018228;28;19919;-89
2023/07/22 11:43:29;;;;;;;;;;;28.60;47.30;;;;;;5022305;28;20768;-88
2023/07/22 11:45:55;;;;;;;;;;;28.80;45.00;;;;;;5021155;28;19924;-88
2023/07/22 11:48:21;;;;;;;;;;;28.90;45.20;;;;;;5021556;28;19921;-87
2023/07/22 11:50:46;;;;;;;;;;;28.70;47.10;;;;;;5021277;28;20655;-87
2023/07/22 11:53:13;;;;;;;;;;;28.70;46.60;;;;;;5003167;28;19920;-86
2023/07/22 11:55:38;;;;;;;;;;;29.00;43.90;;;;;;5002393;28;19921;-84
2023/07/22 11:58:04;;;;;;;;;;;28.70;42.80;;;;;;5001515;28;20709;-87
2023/07/22 12:00:30;;;;;;;;;;;28.90;43.30;;;;;;5001929;28;20427;-86
2023/07/22 12:02:57;;;;;;;;;;;28.80;45.60;;;;;;5001146;28;19968;-86
2023/07/22 12:05:22;;;;;;;;;;;28.60;43.90;;;;;;5001715;28;19914;-86
2023/07/22 12:07:48;;;;;;;;;;;28.40;44.10;;;;;;5001854;28;20038;-86
2023/07/22 12:10:15;;;;;;;;;;;28.30;45.60;;;;;;5001142;28;19979;-87
2023/07/22 12:12:42;;;;;;;;;;;28.00;45.60;;;;;;5000779;28;19999;-85
2023/07/22 12:15:18;;;;;;;;;;;27.80;47.00;;;;;;4999203;28;19979;-85
2023/07/22 12:17:54;;;;;;;;;;;27.70;46.50;;;;;;5001472;28;20335;-85
2023/07/22 12:20:23;;;;;;;;;;;28.00;44.00;;;;;;5001273;28;19914;-87
2023/07/22 12:22:49;;;;;;;;;;;27.90;46.20;;;;;;4997449;28;19918;-86
2023/07/22 12:25:14;;;;;;;;;;;27.50;45.20;;;;;;5000293;28;20510;-85
2023/07/22 12:27:40;;;;;;;;;;;27.30;44.40;;;;;;5001514;28;19914;-86
2023/07/22 12:30:06;;;;;;;;;;;27.60;46.30;;;;;;4998877;28;19913;-87
2023/07/22 12:32:33;;;;;;;;;;;27.70;48.20;;;;;;5000402;28;19926;-86
2023/07/22 12:34:58;;;;;;;;;;;27.60;47.50;;;;;;5001335;28;19929;-85
2023/07/22 12:37:25;;;;;;;;;;;27.80;48.10;;;;;;4998546;28;19959;-87
2023/07/22 12:39:51;;;;;;;;;;;27.80;45.60;;;;;;4998926;28;19925;-85
2023/07/22 12:42:16;;;;;;;;;;;27.60;46.60;;;;;;5003320;28;20229;-85
2023/07/22 12:44:42;;;;;;;;;;;27.40;45.60;;;;;;5000257;28;20325;-84
2023/07/22 12:47:08;;;;;;;;;;;27.30;46.40;;;;;;5016615;28;19926;-84
2023/07/22 12:49:33;;;;;;;;;;;27.20;48.90;;;;;;5001195;28;19925;-85
2023/07/22 12:52:04;;;;;;;;;;;27.40;48.50;;;;;;5018177;28;20489;-84
2023/07/22 12:54:31;;;;;;;;;;;27.50;47.00;;;;;;5025158;28;19921;-84
2023/07/22 12:56:56;;;;;;;;;;;27.20;47.80;;;;;;5024688;28;20395;-83
2023/07/22 12:59:22;;;;;;;;;;;27.00;45.60;;;;;;5006798;28;19913;-83
2023/07/22 13:01:47;;;;;;;;;;;26.60;43.80;;;;;;5023153;28;19916;-85
2023/07/22 13:04:13;;;;;;;;;;;26.60;44.30;;;;;;5022057;28;19928;-86
2023/07/22 13:06:38;;;;;;;;;;;26.50;45.80;;;;;;5023459;28;19920;-84
2023/07/22 13:09:04;;;;;;;;;;;26.80;48.80;;;;;;5020444;28;20640;-86
2023/07/22 13:11:30;;;;;;;;;;;26.80;48.20;;;;;;5024612;28;20266;-85
2023/07/22 13:13:55;;;;;;;;;;;26.70;46.90;;;;;;5024737;28;19967;-85
2023/07/22 13:16:21;;;;;;;;;;;26.80;46.30;;;;;;5024148;28;19939;-86
2023/07/22 13:18:46;;;;;;;;;;;26.60;45.50;;;;;;5024799;28;20618;-84
2023/07/22 13:21:12;;;;;;;;;;;26.70;47.20;;;;;;5024090;28;20472;-85
2023/07/22 13:23:37;;;;;;;;;;;26.60;47.60;;;;;;5024891;28;20418;-84
2023/07/22 13:26:03;;;;;;;;;;;26.60;47.30;;;;;;5022371;28;19924;-85
2023/07/22 13:28:28;;;;;;;;;;;26.70;44.60;;;;;;5024118;28;19951;-87
2023/07/22 13:30:54;;;;;;;;;;;26.80;46.90;;;;;;5016942;28;19971;-85
2023/07/22 13:33:19;;;;;;;;;;;26.60;43.60;;;;;;5023330;28;19963;-85
2023/07/22 13:35:45;;;;;;;;;;;26.60;49.50;;;;;;5023903;28;19921;-86
2023/07/22 13:38:11;;;;;;;;;;;26.50;47.00;;;;;;5005186;28;20495;-84
2023/07/22 13:40:36;;;;;;;;;;;26.40;46.50;;;;;;5020911;28;19917;-85
2023/07/22 13:43:02;;;;;;;;;;;26.50;46.90;;;;;;5023561;28;20463;-84
2023/07/22 13:45:27;;;;;;;;;;;26.40;45.50;;;;;;5022423;28;20371;-84
2023/07/22 13:47:53;;;;;;;;;;;26.40;45.40;;;;;;5024846;28;19921;-86
2023/07/22 13:50:18;;;;;;;;;;;26.40;43.70;;;;;;5024597;28;20469;-85
2023/07/22 13:52:44;;;;;;;;;;;26.30;45.00;;;;;;5024509;28;19909;-85
2023/07/22 13:55:10;;;;;;;;;;;26.30;45.80;;;;;;5006130;28;19917;-83
2023/07/22 13:57:36;;;;;;;;;;;26.40;48.90;;;;;;5024179;28;19914;-86
2023/07/22 14:00:06;;;;;;;;;;;26.50;48.00;;;;;;5023943;28;19912;-86
2023/07/22 14:02:32;;;;;;;;;;;26.50;46.60;;;;;;5024423;28;19913;-86
2023/07/22 14:04:57;;;;;;;;;;;26.20;43.60;;;;;;5028292;28;19909;-85
2023/07/22 14:07:23;;;;;;;;;;;26.30;46.10;;;;;;5024265;28;19917;-86
2023/07/22 14:09:49;;;;;;;;;;;26.40;44.60;;;;;;5024409;28;19914;-86
2023/07/22 14:12:14;;;;;;;;;;;26.50;43.30;;;;;;5024097;28;20380;-84
2023/07/22 14:14:40;;;;;;;;;;;26.40;44.20;;;;;;5025469;28;19925;-87